Time;durP1;ratioP1;P1;durP2;ratioP2;P2;SDS_P1;SDS_P2;PMS_P1;PMS_P2;Temp;Humidity;BMP_temperature;BMP_pressure;BME280_temperature;BME280_humidity;BME280_pressure;Samples;Min_cycle;Max_cycle;Signal;HPM_P1;HPM_P2
2022/12/27 00:00:17;;;;;;;1.60;0.50;;;17.60;61.40;;;;;;7405353;19;20276;-63
2022/12/27 00:02:47;;;;;;;1.92;0.55;;;17.60;61.40;;;;;;7409465;19;19922;-63
2022/12/27 00:05:16;;;;;;;1.63;0.50;;;17.70;61.30;;;;;;7405758;19;20271;-63
2022/12/27 00:07:46;;;;;;;3.72;0.55;;;17.70;61.30;;;;;;7405460;19;19910;-63
2022/12/27 00:10:16;;;;;;;1.00;0.32;;;17.70;61.20;;;;;;7405211;19;19921;-63
2022/12/27 00:12:47;;;;;;;2.00;0.95;;;17.80;61.20;;;;;;7405499;19;19910;-63
2022/12/27 00:15:17;;;;;;;1.27;0.30;;;17.80;61.10;;;;;;7404506;19;19915;-63
2022/12/27 00:17:46;;;;;;;2.65;0.65;;;17.90;61.00;;;;;;7405806;19;19915;-64
2022/12/27 00:20:15;;;;;;;1.90;0.50;;;18.00;60.90;;;;;;7405252;19;19911;-63
2022/12/27 00:22:45;;;;;;;1.67;0.40;;;18.00;60.90;;;;;;7404853;19;19990;-63
2022/12/27 00:25:15;;;;;;;2.60;1.05;;;18.00;60.80;;;;;;7405055;19;19910;-63
2022/12/27 00:27:44;;;;;;;1.45;0.43;;;18.00;60.80;;;;;;7405127;19;19942;-63
2022/12/27 00:30:16;;;;;;;1.80;0.60;;;18.10;60.70;;;;;;7403865;19;19915;-63
2022/12/27 00:32:44;;;;;;;1.42;0.50;;;18.10;60.70;;;;;;7404300;19;19918;-63
2022/12/27 00:35:17;;;;;;;2.63;0.43;;;18.10;60.60;;;;;;7403766;19;20334;-63
2022/12/27 00:37:47;;;;;;;2.67;0.57;;;18.10;60.60;;;;;;7405377;19;19918;-63
2022/12/27 00:40:17;;;;;;;1.15;0.60;;;18.10;60.50;;;;;;7404674;19;19915;-63
2022/12/27 00:42:46;;;;;;;1.88;0.70;;;18.10;60.60;;;;;;7405013;19;20269;-63
2022/12/27 00:45:17;;;;;;;1.33;0.40;;;18.10;60.50;;;;;;7405206;19;19919;-63
2022/12/27 00:47:46;;;;;;;1.50;0.30;;;18.00;60.50;;;;;;7404091;19;19926;-65
2022/12/27 00:50:17;;;;;;;1.30;0.25;;;18.00;60.50;;;;;;7404104;19;19931;-64
2022/12/27 00:52:46;;;;;;;1.42;0.30;;;18.00;60.60;;;;;;7404352;19;19925;-64
2022/12/27 00:55:15;;;;;;;2.03;0.32;;;17.90;60.60;;;;;;7403868;19;19946;-63
2022/12/27 00:57:44;;;;;;;2.17;0.32;;;17.90;60.60;;;;;;7404487;19;20255;-63
2022/12/27 01:00:17;;;;;;;1.15;0.17;;;17.90;60.60;;;;;;7405646;19;19922;-63
2022/12/27 01:02:47;;;;;;;1.83;0.63;;;17.80;60.70;;;;;;7404108;19;19942;-63
2022/12/27 01:05:16;;;;;;;2.17;0.45;;;17.80;60.70;;;;;;7404383;19;20294;-63
2022/12/27 01:07:45;;;;;;;1.70;0.15;;;17.80;60.80;;;;;;7403790;19;19939;-63
2022/12/27 01:10:14;;;;;;;0.95;0.32;;;17.70;60.80;;;;;;7404984;19;19926;-63
2022/12/27 01:12:44;;;;;;;1.52;0.57;;;17.70;60.80;;;;;;7410230;19;19930;-63
2022/12/27 01:15:16;;;;;;;2.20;0.40;;;17.60;60.80;;;;;;7409388;19;19918;-63
2022/12/27 01:17:45;;;;;;;2.08;0.88;;;17.60;60.90;;;;;;7410099;19;20307;-63
2022/12/27 01:20:14;;;;;;;2.40;0.90;;;17.60;61.00;;;;;;7410618;19;19919;-63
2022/12/27 01:22:43;;;;;;;1.60;0.25;;;17.60;61.00;;;;;;7409767;19;19918;-63
2022/12/27 01:25:13;;;;;;;2.35;0.50;;;17.60;61.00;;;;;;7409652;19;20260;-64
2022/12/27 01:27:42;;;;;;;0.95;0.13;;;17.50;60.90;;;;;;7409752;19;19927;-63
2022/12/27 01:30:12;;;;;;;1.13;0.57;;;17.50;60.90;;;;;;7409634;19;19915;-63
2022/12/27 01:32:44;;;;;;;2.17;0.70;;;17.50;60.90;;;;;;7409580;19;20339;-63
2022/12/27 01:35:13;;;;;;;1.35;0.60;;;17.60;60.90;;;;;;7409046;19;19915;-63
2022/12/27 01:37:42;;;;;;;1.73;0.50;;;17.60;60.90;;;;;;7409807;19;20348;-63
2022/12/27 01:40:12;;;;;;;1.80;0.10;;;17.60;60.80;;;;;;7409334;19;19928;-63
2022/12/27 01:42:51;;;;;;;2.15;0.25;;;17.60;60.80;;;;;;7410092;19;19911;-63
2022/12/27 01:45:22;;;;;;;2.20;0.93;;;17.60;60.70;;;;;;7409434;19;19942;-63
2022/12/27 01:47:59;;;;;;;1.80;0.77;;;17.60;60.70;;;;;;7409105;19;19921;-64
2022/12/27 01:50:33;;;;;;;2.17;0.82;;;17.70;60.70;;;;;;7408073;19;20320;-63
2022/12/27 01:53:09;;;;;;;1.17;0.68;;;17.70;60.60;;;;;;7409488;19;20266;-63
2022/12/27 01:55:43;;;;;;;0.75;0.10;;;17.80;60.60;;;;;;7408561;19;19919;-63
2022/12/27 01:58:15;;;;;;;1.40;0.65;;;17.80;60.50;;;;;;7409314;19;20331;-63
2022/12/27 02:00:46;;;;;;;2.65;0.52;;;17.80;60.50;;;;;;7410524;19;19918;-63
2022/12/27 02:03:22;;;;;;;1.88;0.65;;;17.90;60.40;;;;;;7408496;19;19914;-63
2022/12/27 02:05:52;;;;;;;1.02;0.15;;;17.90;60.30;;;;;;7409673;19;19919;-63
2022/12/27 02:08:40;;;;;;;1.42;0.10;;;18.00;60.30;;;;;;7408800;19;19949;-63
2022/12/27 02:11:11;;;;;;;1.38;0.40;;;18.00;60.20;;;;;;7408948;19;19915;-63
2022/12/27 02:13:44;;;;;;;1.63;0.30;;;18.00;60.10;;;;;;7408881;19;19919;-63
2022/12/27 02:16:21;;;;;;;1.67;0.73;;;18.10;60.20;;;;;;7407384;19;19926;-63
2022/12/27 02:18:53;;;;;;;1.00;0.10;;;18.10;60.10;;;;;;7408783;19;19919;-63
2022/12/27 02:21:58;;;;;;;1.67;0.15;;;18.10;60.00;;;;;;7408418;19;19929;-63
2022/12/27 02:24:43;;;;;;;2.47;0.40;;;18.10;59.90;;;;;;7408570;19;19922;-64
2022/12/27 02:27:26;;;;;;;1.75;0.20;;;18.10;60.00;;;;;;7408436;19;19914;-63
2022/12/27 02:30:03;;;;;;;2.38;0.60;;;18.10;60.00;;;;;;7406026;19;20279;-63
2022/12/27 02:32:37;;;;;;;1.65;0.35;;;18.00;59.90;;;;;;7407951;19;19918;-63
2022/12/27 02:35:15;;;;;;;1.38;0.28;;;18.00;59.90;;;;;;7408179;19;19948;-63
2022/12/27 02:37:50;;;;;;;1.63;0.68;;;17.90;59.90;;;;;;7408463;19;19914;-63
2022/12/27 02:54:24;;;;;;;1.42;0.30;;;17.70;60.10;;;;;;7405887;19;19915;-63
2022/12/27 03:03:28;;;;;;;2.72;0.50;;;17.60;60.20;;;;;;7406977;19;19918;-63
2022/12/27 03:06:41;;;;;;;1.85;0.75;;;17.60;60.30;;;;;;7407919;19;19929;-63
2022/12/27 03:15:59;;;;;;;2.38;0.68;;;17.50;60.30;;;;;;7406660;19;19911;-63
2022/12/27 03:18:45;;;;;;;1.83;0.32;;;17.50;60.20;;;;;;7407125;19;19915;-63
2022/12/27 03:26:57;;;;;;;1.20;0.20;;;17.60;60.10;;;;;;7406857;19;19914;-63
2022/12/27 03:35:11;;;;;;;2.15;0.70;;;17.60;60.00;;;;;;7405224;19;19935;-63
2022/12/27 03:40:37;;;;;;;1.63;0.63;;;17.70;59.90;;;;;;7406875;19;19921;-63
2022/12/27 03:43:10;;;;;;;1.30;0.22;;;17.80;59.90;;;;;;7406253;19;19925;-64
2022/12/27 03:49:04;;;;;;;2.15;0.50;;;17.90;59.70;;;;;;7402465;19;19926;-63
2022/12/27 03:51:40;;;;;;;2.38;0.60;;;17.90;59.60;;;;;;7405029;19;20375;-63
2022/12/27 03:54:13;;;;;;;2.53;0.30;;;17.90;59.60;;;;;;7406352;19;19941;-64
2022/12/27 03:56:43;;;;;;;1.75;0.45;;;18.00;59.60;;;;;;7404764;19;20347;-64
2022/12/27 03:59:13;;;;;;;1.98;0.45;;;18.00;59.50;;;;;;7409953;19;19926;-63
2022/12/27 04:01:42;;;;;;;1.95;0.30;;;18.10;59.40;;;;;;7406018;19;19914;-63
2022/12/27 04:04:11;;;;;;;2.47;0.90;;;18.00;59.40;;;;;;7405821;19;19921;-63
2022/12/27 04:06:43;;;;;;;1.98;0.45;;;18.00;59.30;;;;;;7405491;19;19938;-63
2022/12/27 04:36:18;;;;;;;2.42;0.43;;;17.70;59.50;;;;;;7404280;19;19918;-63
2022/12/27 04:38:49;;;;;;;2.05;0.22;;;17.70;59.60;;;;;;7405373;19;19915;-63
2022/12/27 04:54:59;;;;;;;2.45;0.90;;;17.50;59.90;;;;;;7404833;19;19937;-63
2022/12/27 04:57:29;;;;;;;1.75;0.32;;;17.50;59.80;;;;;;7404841;19;19919;-63
2022/12/27 05:02:55;;;;;;;1.23;0.22;;;17.50;59.80;;;;;;7399815;19;19919;-63
2022/12/27 05:05:24;;;;;;;2.35;0.22;;;17.50;59.80;;;;;;7403387;19;19935;-63
2022/12/27 05:16:01;;;;;;;1.63;0.40;;;17.60;59.70;;;;;;7402507;19;19975;-63
2022/12/27 05:18:31;;;;;;;1.70;0.15;;;17.60;59.60;;;;;;7403477;19;20329;-63
2022/12/27 05:21:04;;;;;;;1.98;0.30;;;17.60;59.60;;;;;;7403846;19;19914;-63
2022/12/27 05:26:23;;;;;;;1.95;0.60;;;17.70;59.50;;;;;;7404970;19;19914;-63
2022/12/27 05:28:54;;;;;;;1.50;0.73;;;17.80;59.40;;;;;;7402105;19;20385;-63
2022/12/27 05:31:24;;;;;;;1.92;0.80;;;17.80;59.40;;;;;;7403164;19;19981;-64
2022/12/27 05:33:55;;;;;;;2.00;0.60;;;17.80;59.30;;;;;;7402756;19;20281;-63
2022/12/27 05:36:25;;;;;;;1.67;0.43;;;17.90;59.30;;;;;;7402726;19;19918;-63
2022/12/27 05:38:54;;;;;;;;;;;17.90;59.20;;;;;;7405442;19;19974;-63
2022/12/27 05:41:26;;;;;;;1.48;0.20;;;18.00;59.20;;;;;;7403193;19;20002;-63
2022/12/27 05:43:55;;;;;;;2.03;0.50;;;18.00;59.20;;;;;;7400833;19;20275;-63
2022/12/27 05:46:24;;;;;;;2.35;0.45;;;18.00;59.10;;;;;;7402895;19;19928;-63
2022/12/27 05:48:53;;;;;;;1.58;0.50;;;18.00;59.10;;;;;;7402452;19;20346;-63
2022/12/27 05:51:23;;;;;;;1.40;0.20;;;18.00;59.10;;;;;;7402256;19;19974;-63
2022/12/27 05:53:52;;;;;;;;;;;18.00;59.00;;;;;;7404552;19;20347;-62
2022/12/27 05:56:25;;;;;;;2.42;0.35;;;18.00;59.10;;;;;;7405362;19;19946;-63
2022/12/27 05:58:55;;;;;;;1.75;0.45;;;17.90;59.10;;;;;;7409058;19;19982;-63
2022/12/27 06:01:26;;;;;;;1.70;0.40;;;18.00;59.10;;;;;;7409402;19;19919;-63
2022/12/27 06:03:55;;;;;;;;;;;17.90;59.10;;;;;;7410973;19;19918;-63
2022/12/27 06:06:24;;;;;;;2.13;0.25;;;17.90;59.20;;;;;;7408748;19;19914;-64
2022/12/27 06:08:53;;;;;;;1.67;0.63;;;17.80;59.20;;;;;;7409338;19;19942;-64
2022/12/27 06:11:25;;;;;;;0.93;0.22;;;17.80;59.10;;;;;;7409022;19;19910;-63
2022/12/27 06:13:56;;;;;;;2.00;0.43;;;17.80;59.20;;;;;;7409041;19;19942;-63
2022/12/27 06:16:25;;;;;;;1.38;0.98;;;17.80;59.30;;;;;;7407603;19;19923;-63
2022/12/27 06:18:55;;;;;;;2.40;0.70;;;17.70;59.30;;;;;;7408719;19;19919;-63
2022/12/27 06:21:24;;;;;;;1.58;0.47;;;17.70;59.40;;;;;;7409299;19;19914;-63
2022/12/27 06:23:53;;;;;;;1.60;0.60;;;17.70;59.50;;;;;;7408289;19;19910;-63
2022/12/27 06:26:27;;;;;;;2.30;0.63;;;17.60;59.50;;;;;;7410487;19;19918;-64
2022/12/27 06:28:57;;;;;;;1.50;0.63;;;17.60;59.60;;;;;;7407388;19;20391;-63
2022/12/27 06:31:27;;;;;;;1.55;0.45;;;17.50;59.60;;;;;;7408161;19;19923;-63
2022/12/27 06:33:57;;;;;;;1.48;0.15;;;17.50;59.60;;;;;;7408188;19;20331;-63
2022/12/27 06:36:29;;;;;;;;;;;17.50;59.60;;;;;;7409793;19;19914;-63
2022/12/27 06:38:58;;;;;;;1.67;0.80;;;17.50;59.70;;;;;;7408596;19;19918;-63
2022/12/27 06:41:30;;;;;;;2.08;0.60;;;17.50;59.70;;;;;;7408365;19;19992;-63
2022/12/27 06:44:00;;;;;;;2.10;0.30;;;17.50;59.60;;;;;;7407584;19;19931;-63
2022/12/27 06:46:29;;;;;;;1.25;0.13;;;17.50;59.60;;;;;;7408117;19;19929;-63
2022/12/27 06:48:58;;;;;;;1.73;0.60;;;17.50;59.60;;;;;;7407748;19;19922;-63
2022/12/27 06:51:27;;;;;;;2.30;0.70;;;17.50;59.50;;;;;;7406427;19;19929;-63
2022/12/27 06:53:56;;;;;;;2.75;0.57;;;17.60;59.50;;;;;;7408506;19;20259;-63
2022/12/27 06:56:25;;;;;;;1.48;0.25;;;17.60;59.50;;;;;;7407243;19;19914;-63
2022/12/27 06:58:57;;;;;;;1.05;0.47;;;17.60;59.50;;;;;;7407454;19;19994;-63
2022/12/27 07:01:29;;;;;;;1.20;0.22;;;17.70;59.50;;;;;;7407945;19;19914;-63
2022/12/27 07:04:00;;;;;;;0.70;0.38;;;17.70;59.40;;;;;;7407160;19;19931;-63
2022/12/27 07:06:31;;;;;;;2.60;0.20;;;17.70;59.30;;;;;;7407730;19;19915;-63
2022/12/27 07:09:02;;;;;;;1.92;0.30;;;17.80;59.40;;;;;;7404822;19;19923;-63
2022/12/27 07:11:44;;;;;;;1.17;0.28;;;17.80;59.20;;;;;;7407112;19;19915;-63
2022/12/27 07:14:16;;;;;;;3.33;0.40;;;17.80;59.30;;;;;;7407727;19;19921;-63
2022/12/27 07:16:45;;;;;;;1.40;0.55;;;17.90;59.20;;;;;;7405987;19;19919;-63
2022/12/27 07:19:15;;;;;;;1.63;0.47;;;17.90;59.10;;;;;;7406966;19;19918;-63
2022/12/27 07:21:45;;;;;;;1.23;0.20;;;18.00;59.10;;;;;;7406851;19;19962;-63
2022/12/27 07:24:14;;;;;;;2.22;0.82;;;18.00;59.00;;;;;;7407193;19;20258;-63
2022/12/27 07:26:43;;;;;;;1.98;0.22;;;18.00;59.00;;;;;;7407478;19;19915;-63
2022/12/27 07:29:15;;;;;;;1.67;0.20;;;18.00;59.00;;;;;;7407340;19;19919;-63
2022/12/27 07:31:44;;;;;;;1.85;0.65;;;18.00;59.00;;;;;;7406553;19;19986;-63
2022/12/27 07:34:13;;;;;;;2.88;0.15;;;18.10;59.00;;;;;;7406462;19;19938;-63
2022/12/27 07:36:43;;;;;;;1.60;0.50;;;18.00;58.90;;;;;;7406583;19;20358;-63
2022/12/27 07:39:13;;;;;;;2.10;0.30;;;18.00;58.90;;;;;;7406644;19;20400;-63
2022/12/27 07:41:42;;;;;;;1.10;0.30;;;18.00;59.00;;;;;;7406162;19;19952;-63
2022/12/27 07:44:12;;;;;;;1.50;0.22;;;17.90;59.00;;;;;;7406313;19;19931;-63
2022/12/27 07:46:44;;;;;;;1.10;0.10;;;17.90;59.00;;;;;;7406127;19;19918;-63
2022/12/27 07:49:13;;;;;;;2.35;0.32;;;17.90;59.00;;;;;;7406768;19;19918;-63
2022/12/27 07:51:42;;;;;;;1.25;0.35;;;17.90;59.10;;;;;;7406085;19;20291;-63
2022/12/27 07:54:12;;;;;;;1.17;0.68;;;17.80;59.00;;;;;;7409206;19;19915;-63
2022/12/27 07:56:41;;;;;;;2.47;0.98;;;17.80;59.10;;;;;;7405529;19;20624;-63
2022/12/27 07:59:14;;;;;;;2.17;0.45;;;17.80;59.20;;;;;;7406469;19;19971;-62
2022/12/27 08:04:27;;;;;;;1.33;0.30;;;17.70;59.30;;;;;;7405170;19;19953;-63
2022/12/27 08:07:02;;;;;;;1.17;0.20;;;17.60;59.40;;;;;;7405776;19;19914;-63
2022/12/27 08:09:38;;;;;;;2.53;0.40;;;17.60;59.40;;;;;;7405886;19;20273;-63
2022/12/27 08:12:08;;;;;;;1.60;0.60;;;17.60;59.50;;;;;;7405385;19;19911;-63
2022/12/27 08:14:37;;;;;;;1.88;0.22;;;17.50;59.40;;;;;;7405330;19;20343;-63
2022/12/27 08:17:16;;;;;;;1.58;0.50;;;17.50;59.40;;;;;;7404219;19;20331;-63
2022/12/27 08:19:46;;;;;;;1.58;0.40;;;17.50;59.40;;;;;;7404526;19;19975;-63
2022/12/27 08:22:15;;;;;;;1.55;0.13;;;17.50;59.50;;;;;;7405065;19;19950;-63
2022/12/27 08:24:48;;;;;;;1.17;0.30;;;17.50;59.50;;;;;;7409638;19;19988;-63
2022/12/27 08:27:22;;;;;;;1.38;0.32;;;17.50;59.40;;;;;;7405641;19;19926;-63
2022/12/27 08:29:51;;;;;;;1.92;0.60;;;17.50;59.50;;;;;;7402352;19;20250;-63
2022/12/27 08:32:23;;;;;;;1.52;0.20;;;17.50;59.40;;;;;;7404824;19;19918;-63
2022/12/27 08:34:52;;;;;;;1.60;0.43;;;17.60;59.40;;;;;;7404765;19;19951;-63
2022/12/27 08:37:21;;;;;;;1.38;1.10;;;17.60;59.40;;;;;;7405207;19;19915;-63
2022/12/27 08:39:52;;;;;;;2.85;0.30;;;17.60;59.30;;;;;;7404871;19;19919;-63
2022/12/27 08:42:21;;;;;;;1.23;0.22;;;17.60;59.30;;;;;;7404980;19;20332;-63
2022/12/27 08:44:51;;;;;;;1.13;0.10;;;17.70;59.30;;;;;;7404763;19;19925;-63
2022/12/27 08:47:23;;;;;;;1.48;0.32;;;17.70;59.20;;;;;;7404790;19;19919;-64
2022/12/27 08:49:52;;;;;;;1.25;0.20;;;17.80;59.20;;;;;;7404594;19;19919;-63
2022/12/27 08:52:21;;;;;;;2.40;0.10;;;17.80;59.20;;;;;;7404997;19;20364;-63
2022/12/27 08:54:52;;;;;;;1.20;0.10;;;17.90;59.10;;;;;;7408359;19;20374;-63
2022/12/27 08:57:21;;;;;;;1.83;0.38;;;17.90;59.00;;;;;;7404041;19;19915;-63
2022/12/27 08:59:50;;;;;;;1.15;0.60;;;18.00;59.00;;;;;;7404205;19;19918;-64
2022/12/27 09:02:22;;;;;;;1.48;0.13;;;18.00;58.90;;;;;;7403741;19;19934;-63
2022/12/27 09:04:51;;;;;;;1.92;0.82;;;18.00;58.80;;;;;;7404522;19;20236;-63
2022/12/27 09:07:20;;;;;;;1.33;0.70;;;18.10;58.90;;;;;;7402124;19;19927;-63
2022/12/27 09:09:49;;;;;;;2.60;0.63;;;18.10;58.80;;;;;;7403726;19;19915;-63
2022/12/27 09:12:18;;;;;;;2.90;0.70;;;18.10;58.80;;;;;;7404091;19;19918;-63
2022/12/27 09:14:47;;;;;;;1.17;0.50;;;18.10;58.80;;;;;;7403612;19;19970;-63
2022/12/27 09:17:16;;;;;;;1.05;0.38;;;18.10;58.80;;;;;;7402196;19;19919;-63
2022/12/27 09:19:48;;;;;;;1.27;0.60;;;18.00;58.80;;;;;;7403541;19;19915;-63
2022/12/27 09:22:17;;;;;;;1.58;0.63;;;18.00;58.80;;;;;;7405252;19;19933;-63
2022/12/27 09:24:46;;;;;;;1.67;0.63;;;18.00;58.80;;;;;;7403115;19;20268;-63
2022/12/27 09:27:17;;;;;;;1.40;0.45;;;18.00;58.80;;;;;;7403326;19;19923;-63
2022/12/27 09:29:46;;;;;;;1.20;0.32;;;17.90;58.80;;;;;;7401885;19;19918;-64
2022/12/27 09:32:15;;;;;;;1.95;0.60;;;17.90;58.80;;;;;;7406691;19;19931;-63
2022/12/27 09:34:44;;;;;;;2.50;0.22;;;17.90;58.80;;;;;;7410112;19;19978;-63
2022/12/27 09:37:16;;;;;;;1.55;0.40;;;17.90;59.00;;;;;;7409367;19;20387;-63
2022/12/27 09:39:45;;;;;;;1.55;0.17;;;17.90;59.00;;;;;;7410079;19;19918;-63
2022/12/27 09:42:29;;;;;;;1.85;0.43;;;17.80;59.00;;;;;;7409567;19;19922;-63
2022/12/27 09:45:05;;;;;;;2.95;0.25;;;17.80;59.10;;;;;;7410585;19;19923;-62
2022/12/27 09:47:41;;;;;;;1.52;0.55;;;17.80;59.10;;;;;;7409825;19;19970;-63
2022/12/27 09:50:17;;;;;;;2.15;0.60;;;17.70;59.20;;;;;;7409524;19;19950;-63
2022/12/27 09:52:55;;;;;;;1.58;0.77;;;17.70;59.30;;;;;;7411904;19;19915;-63
2022/12/27 09:55:33;;;;;;;1.60;0.43;;;17.70;59.30;;;;;;7409035;19;20395;-63
2022/12/27 09:58:27;;;;;;;2.85;0.32;;;17.60;59.30;;;;;;7407844;19;19918;-64
2022/12/27 10:00:56;;;;;;;1.50;0.60;;;17.60;59.50;;;;;;7409582;19;19938;-63
2022/12/27 10:03:28;;;;;;;1.85;0.10;;;17.60;59.50;;;;;;7408532;19;20312;-63
2022/12/27 10:06:22;;;;;;;1.17;0.22;;;17.60;59.50;;;;;;7408967;19;19915;-63
2022/12/27 10:09:01;;;;;;;2.28;0.70;;;17.60;59.40;;;;;;7409025;19;19926;-62
2022/12/27 10:11:40;;;;;;;2.35;0.25;;;17.60;59.40;;;;;;7409126;19;19906;-63
2022/12/27 10:14:24;;;;;;;2.03;0.30;;;17.60;59.40;;;;;;7409299;19;19927;-63
2022/12/27 10:17:01;;;;;;;2.50;0.63;;;17.60;59.30;;;;;;7407303;19;19950;-63
2022/12/27 10:19:40;;;;;;;1.73;0.13;;;17.70;59.30;;;;;;7406588;19;19945;-63
2022/12/27 10:22:20;;;;;;;1.20;0.35;;;17.70;59.30;;;;;;7409599;19;19986;-63
2022/12/27 10:24:54;;;;;;;2.78;0.50;;;17.80;59.20;;;;;;7408487;19;19915;-63
2022/12/27 10:27:26;;;;;;;2.30;0.32;;;17.80;59.10;;;;;;7409153;19;19949;-63
2022/12/27 10:29:57;;;;;;;1.90;0.73;;;17.80;59.10;;;;;;7406261;19;19974;-63
2022/12/27 10:32:27;;;;;;;1.65;0.28;;;17.90;59.00;;;;;;7408527;19;19928;-63
2022/12/27 10:35:00;;;;;;;2.05;0.60;;;17.90;59.00;;;;;;7408086;19;19919;-64
2022/12/27 10:37:31;;;;;;;0.88;0.10;;;18.00;58.90;;;;;;7408471;19;19974;-63
2022/12/27 10:40:15;;;;;;;2.03;0.60;;;18.10;58.80;;;;;;7408089;19;19986;-63
2022/12/27 10:42:48;;;;;;;1.95;1.58;;;18.20;58.80;;;;;;7408062;19;20252;-63
2022/12/27 10:45:32;;;;;;;1.75;0.52;;;18.20;58.80;;;;;;7408133;19;20249;-63
2022/12/27 10:48:15;;;;;;;1.23;0.93;;;18.20;58.70;;;;;;7407863;19;19918;-63
2022/12/27 10:50:54;;;;;;;2.25;0.77;;;18.20;58.70;;;;;;7408906;19;19935;-63
2022/12/27 10:53:34;;;;;;;1.92;0.50;;;18.20;58.60;;;;;;7407517;19;19946;-63
2022/12/27 10:56:18;;;;;;;1.98;0.10;;;18.20;58.60;;;;;;7407733;19;20335;-63
2022/12/27 10:58:48;;;;;;;2.50;0.60;;;18.20;58.70;;;;;;7406803;19;19919;-63
2022/12/27 11:01:20;;;;;;;1.45;0.35;;;18.20;58.70;;;;;;7407623;19;19923;-63
2022/12/27 11:03:49;;;;;;;1.85;0.52;;;18.20;58.70;;;;;;7407542;19;19970;-63
2022/12/27 11:06:25;;;;;;;2.92;0.38;;;18.20;58.70;;;;;;7407221;19;19947;-63
2022/12/27 11:08:55;;;;;;;1.70;0.35;;;18.10;58.70;;;;;;7407427;19;19914;-64
2022/12/27 11:11:28;;;;;;;1.70;0.32;;;18.10;58.80;;;;;;7407089;19;19917;-64
2022/12/27 11:14:12;;;;;;;2.22;0.30;;;18.10;58.80;;;;;;7407350;19;19923;-63
2022/12/27 11:16:42;;;;;;;2.15;0.45;;;18.10;58.90;;;;;;7406308;19;19923;-62
2022/12/27 11:19:23;;;;;;;1.67;0.32;;;18.10;58.90;;;;;;7405934;19;19926;-63
2022/12/27 11:21:54;;;;;;;1.33;0.32;;;18.00;58.90;;;;;;7409969;19;19950;-63
2022/12/27 11:24:24;;;;;;;2.78;0.22;;;18.00;59.00;;;;;;7405110;19;20340;-63
2022/12/27 11:26:58;;;;;;;;;;;18.00;59.00;;;;;;7409549;19;19982;-63
2022/12/27 11:29:29;;;;;;;2.15;0.68;;;18.00;59.20;;;;;;7405436;19;19923;-63
2022/12/27 11:32:05;;;;;;;1.10;0.40;;;18.00;59.10;;;;;;7406637;19;20299;-63
2022/12/27 11:34:35;;;;;;;;;;;18.00;59.10;;;;;;7408663;19;19936;-63
2022/12/27 11:37:27;;;;;;;2.05;0.60;;;17.90;59.20;;;;;;7405183;19;19914;-63
2022/12/27 11:40:25;;;;;;;1.02;0.20;;;17.90;59.20;;;;;;7405369;19;19921;-63
2022/12/27 11:43:05;;;;;;;1.35;0.65;;;17.80;59.10;;;;;;7407005;19;19919;-63
2022/12/27 11:45:44;;;;;;;1.13;0.32;;;17.90;59.30;;;;;;7406247;19;19914;-63
2022/12/27 11:48:25;;;;;;;2.95;0.22;;;17.80;59.30;;;;;;7406315;19;19926;-63
2022/12/27 11:51:24;;;;;;;1.67;0.45;;;17.80;59.30;;;;;;7410396;19;19918;-63
2022/12/27 11:54:13;;;;;;;1.65;0.50;;;17.80;59.40;;;;;;7405560;19;19922;-63
2022/12/27 11:56:45;;;;;;;2.10;0.20;;;17.70;59.60;;;;;;7406546;19;19915;-63
2022/12/27 11:59:39;;;;;;;1.90;0.30;;;17.70;59.50;;;;;;7405070;19;19923;-63
2022/12/27 12:02:23;;;;;;;;;;;17.70;59.50;;;;;;7409352;19;19915;-63
2022/12/27 12:05:19;;;;;;;1.10;0.22;;;17.70;59.60;;;;;;7406064;19;19978;-63
2022/12/27 12:08:15;;;;;;;1.85;0.32;;;17.70;59.50;;;;;;7405952;19;19926;-62
2022/12/27 12:10:55;;;;;;;1.45;0.73;;;17.70;59.50;;;;;;7405596;19;19918;-63
2022/12/27 12:13:57;;;;;;;2.33;0.80;;;17.70;59.50;;;;;;7406059;19;19919;-63
2022/12/27 12:16:56;;;;;;;1.83;0.47;;;17.80;59.40;;;;;;7401519;19;19918;-63
2022/12/27 12:19:54;;;;;;;1.10;0.45;;;17.80;59.40;;;;;;7406562;19;19999;-63
2022/12/27 12:22:38;;;;;;;2.45;0.73;;;17.90;59.50;;;;;;7405427;19;19918;-63
2022/12/27 12:25:42;;;;;;;1.63;0.60;;;18.00;59.20;;;;;;7405122;19;19936;-63
2022/12/27 12:28:48;;;;;;;2.67;0.35;;;18.10;59.90;;;;;;7404367;19;19922;-64
2022/12/27 12:31:34;;;;;;;1.13;0.15;;;18.20;59.10;;;;;;7403983;19;19933;-63
2022/12/27 12:34:17;;;;;;;3.30;0.15;;;18.30;59.70;;;;;;7404028;19;19925;-63
2022/12/27 12:37:02;;;;;;;1.98;0.70;;;18.30;58.90;;;;;;7405046;19;19918;-63
2022/12/27 12:39:50;;;;;;;1.20;0.32;;;18.40;58.90;;;;;;7403566;19;19915;-63
2022/12/27 12:42:23;;;;;;;1.38;0.13;;;18.40;58.80;;;;;;7404209;19;20019;-63
2022/12/27 12:45:21;;;;;;;3.45;0.20;;;18.40;58.80;;;;;;7404958;19;19923;-62
2022/12/27 12:48:15;;;;;;;1.30;0.60;;;18.30;58.80;;;;;;7404308;19;19918;-63
2022/12/27 12:51:06;;;;;;;2.17;0.20;;;18.30;58.80;;;;;;7407511;19;20398;-63
2022/12/27 12:53:53;;;;;;;1.27;0.52;;;18.30;58.80;;;;;;7404481;19;19915;-64
2022/12/27 12:56:58;;;;;;;2.85;0.65;;;18.30;58.90;;;;;;7404102;19;20296;-63
2022/12/27 12:59:54;;;;;;;1.48;0.30;;;18.20;58.90;;;;;;7403001;19;20327;-63
2022/12/27 13:03:00;;;;;;;1.00;0.22;;;18.20;59.00;;;;;;7404258;19;19933;-63
2022/12/27 13:05:42;;;;;;;2.08;0.50;;;18.20;59.10;;;;;;7404383;19;19919;-62
2022/12/27 13:08:14;;;;;;;;;;;18.20;59.10;;;;;;7411852;19;19926;-63
2022/12/27 13:11:20;;;;;;;1.88;0.30;;;18.20;59.20;;;;;;7411162;19;19935;-64
2022/12/27 13:14:05;;;;;;;2.47;0.38;;;18.10;59.20;;;;;;7409441;19;19907;-63
2022/12/27 13:16:49;;;;;;;1.92;0.40;;;18.10;59.20;;;;;;7409000;19;19923;-63
2022/12/27 13:19:40;;;;;;;2.53;0.60;;;18.00;59.20;;;;;;7409364;19;20336;-63
2022/12/27 13:22:17;;;;;;;1.92;0.32;;;18.00;59.20;;;;;;7410269;19;19918;-63
2022/12/27 13:25:05;;;;;;;1.70;0.35;;;17.90;59.30;;;;;;7410298;19;19974;-63
2022/12/27 13:27:39;;;;;;;;;;;17.90;59.40;;;;;;7412276;19;19930;-64
2022/12/27 13:30:20;;;;;;;0.82;0.30;;;17.90;59.50;;;;;;7406957;19;20247;-63
2022/12/27 13:33:09;;;;;;;1.75;0.60;;;17.80;59.50;;;;;;7409410;19;19915;-63
2022/12/27 13:35:52;;;;;;;1.48;0.10;;;17.80;59.60;;;;;;7409648;19;19914;-63
2022/12/27 13:38:34;;;;;;;2.67;0.73;;;17.70;59.50;;;;;;7410135;19;20270;-63
2022/12/27 13:41:25;;;;;;;1.27;0.10;;;17.70;59.70;;;;;;7410757;19;19923;-63
2022/12/27 13:44:13;;;;;;;1.75;0.22;;;17.70;59.70;;;;;;7408904;19;19919;-63
2022/12/27 13:47:16;;;;;;;2.28;0.65;;;17.70;59.80;;;;;;7409565;19;20322;-63
2022/12/27 13:50:18;;;;;;;1.50;0.20;;;17.70;59.90;;;;;;7412577;19;19947;-63
2022/12/27 13:53:00;;;;;;;1.48;0.40;;;17.60;59.90;;;;;;7407824;19;19915;-63
2022/12/27 13:55:55;;;;;;;1.55;0.50;;;17.60;59.90;;;;;;7409256;19;19952;-63
2022/12/27 13:59:03;;;;;;;1.17;0.63;;;17.60;59.90;;;;;;7409009;19;19910;-63
2022/12/27 14:02:08;;;;;;;2.72;0.85;;;17.60;59.90;;;;;;7407691;19;19918;-63
2022/12/27 14:04:58;;;;;;;2.38;0.80;;;17.60;59.80;;;;;;7408239;19;20300;-63
2022/12/27 14:07:40;;;;;;;2.60;0.70;;;17.60;59.90;;;;;;7409044;19;19939;-64
2022/12/27 14:10:18;;;;;;;1.55;0.22;;;17.70;59.90;;;;;;7408521;19;19918;-63
2022/12/27 14:12:59;;;;;;;2.38;0.63;;;17.70;59.90;;;;;;7408819;19;19921;-63
2022/12/27 14:16:01;;;;;;;0.95;0.15;;;17.70;59.80;;;;;;7408706;19;20304;-63
2022/12/27 14:19:03;;;;;;;1.38;0.25;;;17.80;59.80;;;;;;7409700;19;19946;-63
2022/12/27 14:21:56;;;;;;;1.40;0.60;;;17.80;59.80;;;;;;7406532;19;19918;-63
2022/12/27 14:24:59;;;;;;;1.73;0.32;;;17.90;59.80;;;;;;7408417;19;19915;-63
2022/12/27 14:28:07;;;;;;;1.27;0.70;;;17.90;59.70;;;;;;7408506;19;19922;-63
2022/12/27 14:31:29;;;;;;;1.30;0.60;;;18.00;59.70;;;;;;7408074;19;19935;-63
2022/12/27 14:34:22;;;;;;;1.40;0.50;;;18.00;59.60;;;;;;7404116;19;19978;-63
2022/12/27 14:37:18;;;;;;;2.85;0.57;;;18.00;59.50;;;;;;7405733;19;19907;-63
2022/12/27 14:40:13;;;;;;;1.83;0.20;;;18.10;59.50;;;;;;7405393;19;19934;-63
2022/12/27 14:43:12;;;;;;;2.17;0.10;;;18.10;59.50;;;;;;7408078;19;19910;-63
2022/12/27 14:46:18;;;;;;;1.38;0.20;;;18.10;59.50;;;;;;7407543;19;19914;-63
2022/12/27 14:49:20;;;;;;;1.15;0.22;;;18.00;59.40;;;;;;7406467;19;19923;-63
2022/12/27 14:52:15;;;;;;;1.95;0.60;;;18.10;59.50;;;;;;7408094;19;19926;-63
2022/12/27 14:55:29;;;;;;;1.08;0.25;;;18.00;59.50;;;;;;7407788;19;19926;-63
2022/12/27 14:58:21;;;;;;;1.58;0.70;;;18.00;59.50;;;;;;7406327;19;20362;-63
2022/12/27 15:01:11;;;;;;;1.70;0.50;;;18.00;59.60;;;;;;7405590;19;19966;-63
2022/12/27 15:04:00;;;;;;;2.10;0.25;;;17.90;59.50;;;;;;7406796;19;19917;-63
2022/12/27 15:06:55;;;;;;;1.77;0.40;;;17.90;59.60;;;;;;7407507;19;20248;-63
2022/12/27 15:09:34;;;;;;;1.75;0.70;;;17.90;59.60;;;;;;7407756;19;19922;-63
2022/12/27 15:12:15;;;;;;;1.42;0.15;;;17.80;59.60;;;;;;7407176;19;19915;-63
2022/12/27 15:15:09;;;;;;;1.15;0.63;;;17.80;59.70;;;;;;7407041;19;19947;-63
2022/12/27 15:17:54;;;;;;;1.75;0.30;;;17.70;59.70;;;;;;7408947;19;19941;-63
2022/12/27 15:20:52;;;;;;;1.23;0.32;;;17.70;59.90;;;;;;7405426;19;19919;-64